Kenyon, Minnesota
Current Conditions -  °F | °C
As of 10:14 AM on Monday 22 Dec 2014 (Local Time) from KSYN Reporting Station
Light Rain Light Rain  
Wind Chill: 30°   Ceiling: 900
Heat Index: 37°   Visibility: 3mi
Dew Point: 34°   Wind: 12mph
Humidity: 88%   Direction: 130°SE
Pressure: 29.64"   Gusts: 17mph
Location:  44.27°N, 92.99°W
Report Text: KSYN 221614Z AUTO 13010G15KT 3SM -RA OVC009 03/01 A2964 RMK AO2 T00300012
Loading
Personal Weather Stations






























Interactive Weather Map New forecast layout! Learn more

10-Day Weather Forecast

Advertisements
Track Severe Weather on mobile